createdAt,value
2023-03-06T01:12:30.889Z,346.00
2023-03-06T01:13:30.875Z,346.00
2023-03-06T01:14:30.872Z,344.00
2023-03-06T01:15:30.863Z,338.00
2023-03-06T01:16:30.905Z,339.00
2023-03-06T01:17:30.862Z,338.00
2023-03-06T01:18:30.865Z,338.00
2023-03-06T01:19:30.857Z,337.00
2023-03-06T01:20:30.864Z,338.00
2023-03-06T01:21:30.860Z,340.00
2023-03-06T01:22:30.861Z,340.00
2023-03-06T01:23:30.858Z,340.00
2023-03-06T01:24:30.866Z,340.00
2023-03-06T01:25:30.860Z,340.00
2023-03-06T01:26:30.866Z,341.00
2023-03-06T01:27:30.865Z,343.00
2023-03-06T01:28:30.839Z,344.00
2023-03-06T01:29:30.836Z,345.00
2023-03-06T01:30:30.825Z,344.00
2023-03-06T01:31:31.197Z,344.00
2023-03-06T01:32:30.913Z,344.00
2023-03-06T01:33:30.818Z,345.00
2023-03-06T01:34:30.820Z,346.00
2023-03-06T01:35:30.848Z,346.00
2023-03-06T01:36:30.814Z,343.00
2023-03-06T01:37:30.813Z,341.00
2023-03-06T01:38:30.824Z,339.00
2023-03-06T01:39:30.820Z,336.00
2023-03-06T01:40:30.812Z,337.00
2023-03-06T01:41:30.839Z,339.00
2023-03-06T01:42:32.147Z,341.00
2023-03-06T01:43:30.830Z,342.00
2023-03-06T01:44:30.801Z,344.00
2023-03-06T01:45:30.937Z,346.00
2023-03-06T01:46:30.796Z,345.00
2023-03-06T01:47:30.823Z,345.00
2023-03-06T01:48:30.909Z,343.00
2023-03-06T01:49:30.803Z,340.00
2023-03-06T01:50:30.800Z,340.00
2023-03-06T01:51:30.807Z,342.00
2023-03-06T01:52:30.802Z,343.00
2023-03-06T01:53:30.803Z,348.00
2023-03-06T01:54:30.865Z,346.00
2023-03-06T01:55:30.804Z,342.00
2023-03-06T01:56:30.803Z,341.00
2023-03-06T01:57:30.787Z,339.00
2023-03-06T01:58:30.780Z,341.00
2023-03-06T01:59:30.782Z,347.00
2023-03-06T02:00:30.788Z,347.00
2023-03-06T02:01:30.839Z,345.00
2023-03-06T02:02:30.792Z,344.00
2023-03-06T02:03:30.755Z,343.00
2023-03-06T02:04:30.753Z,344.00
2023-03-06T02:05:30.756Z,345.00
2023-03-06T02:06:30.767Z,342.00
2023-03-06T02:07:30.756Z,342.00
2023-03-06T04:34:30.799Z,324.00
2023-03-06T04:44:30.782Z,326.00
2023-03-06T05:20:30.836Z,320.00
2023-03-06T06:48:31.097Z,663.00
2023-03-06T06:51:31.079Z,760.00
2023-03-06T06:53:31.082Z,786.00
2023-03-06T06:57:31.810Z,882.00
2023-03-06T06:58:30.977Z,898.00
2023-03-06T06:59:30.970Z,908.00
2023-03-06T07:00:30.954Z,937.00
2023-03-06T07:01:31.009Z,941.00
2023-03-06T07:02:30.954Z,955.00
2023-03-06T07:03:30.987Z,960.00
2023-03-06T07:04:30.928Z,968.00
2023-03-06T07:05:31.003Z,982.00
2023-03-06T07:06:30.888Z,996.00
2023-03-06T07:07:30.915Z,1009.00
2023-03-06T07:08:30.852Z,1016.00
2023-03-06T07:09:30.885Z,1026.00
2023-03-06T07:10:30.919Z,1033.00
2023-03-06T07:11:30.858Z,1048.00
2023-03-06T07:12:30.810Z,1076.00
2023-03-06T07:13:30.807Z,1074.00
2023-03-06T07:14:30.795Z,1087.00
2023-03-06T07:15:30.834Z,1093.00
2023-03-06T07:16:30.765Z,1106.00
2023-03-06T07:17:30.739Z,1125.00
2023-03-06T07:18:30.710Z,1149.00
2023-03-06T07:19:30.713Z,1115.00
2023-03-06T07:20:30.774Z,1142.00
2023-03-06T07:21:30.727Z,1166.00
2023-03-06T07:22:38.736Z,1202.00
2023-03-06T07:23:31.655Z,1216.00
2023-03-06T07:24:30.620Z,1225.00
2023-03-06T07:25:30.593Z,1232.00
2023-03-06T07:26:34.185Z,1267.00
2023-03-06T07:27:30.604Z,1282.00
2023-03-06T07:28:37.602Z,1283.00
2023-03-06T07:29:31.516Z,1294.00
2023-03-06T07:30:30.479Z,1310.00
2023-03-06T07:31:30.465Z,1316.00
2023-03-06T07:32:30.616Z,1346.00
2023-03-06T07:33:30.421Z,1356.00
2023-03-06T07:34:30.388Z,1365.00
2023-03-06T07:35:30.423Z,1369.00
2023-03-06T07:36:30.361Z,1388.00
2023-03-06T07:37:30.390Z,1385.00
2023-03-06T07:38:30.274Z,1392.00
2023-03-06T07:39:30.261Z,1405.00
2023-03-06T07:40:30.755Z,1406.00
2023-03-06T07:41:30.766Z,1411.00
2023-03-06T07:42:30.329Z,1484.00
2023-03-06T07:43:30.161Z,1544.00
2023-03-06T07:44:30.290Z,1561.00
2023-03-06T07:45:30.095Z,1567.00
2023-03-06T07:46:30.266Z,1473.00
2023-03-06T07:47:30.081Z,1573.00
2023-03-06T07:48:30.042Z,1587.00
2023-03-06T07:49:30.025Z,1562.00
2023-03-06T07:50:29.981Z,1573.00
2023-03-06T07:51:29.961Z,1576.00
2023-03-06T07:52:29.927Z,1557.00
2023-03-06T07:53:29.917Z,1554.00
2023-03-06T07:54:29.962Z,1561.00
2023-03-06T07:55:29.871Z,1582.00
2023-03-06T07:56:29.812Z,1613.00
2023-03-06T07:57:29.776Z,1609.00
2023-03-06T07:58:29.947Z,1600.00
2023-03-06T07:59:29.744Z,1609.00
2023-03-06T08:00:30.283Z,1617.00
2023-03-06T08:01:29.657Z,1682.00
2023-03-06T08:02:29.696Z,1688.00
2023-03-06T08:03:29.628Z,1588.00
2023-03-06T08:04:30.269Z,1613.00
2023-03-06T08:05:29.600Z,1626.00
2023-03-06T08:06:29.554Z,1630.00
2023-03-06T08:07:29.541Z,1701.00
2023-03-06T08:08:29.455Z,1700.00
2023-03-06T08:09:29.431Z,1682.00
2023-03-06T08:10:29.401Z,1629.00
2023-03-06T08:11:29.344Z,1646.00
2023-03-06T08:12:29.372Z,1686.00
2023-03-06T08:13:29.312Z,1730.00
2023-03-06T08:14:29.432Z,1721.00
2023-03-06T08:15:29.243Z,1619.00
2023-03-06T08:16:29.241Z,1639.00
2023-03-06T08:17:29.159Z,1634.00
2023-03-06T08:18:29.173Z,1676.00
2023-03-06T08:19:29.101Z,1695.00
2023-03-06T08:20:29.069Z,1690.00
2023-03-06T08:21:29.061Z,1650.00
2023-03-06T08:22:29.025Z,1658.00
2023-03-06T08:23:29.040Z,1662.00
2023-03-06T08:24:28.973Z,1742.00
2023-03-06T08:25:28.952Z,1767.00
2023-03-06T08:26:28.903Z,1762.00
2023-03-06T08:27:28.896Z,1726.00
2023-03-06T08:28:28.845Z,1687.00
2023-03-06T08:29:29.292Z,1698.00
2023-03-06T08:30:28.782Z,1749.00
2023-03-06T08:31:28.864Z,1749.00
2023-03-06T08:32:28.728Z,1747.00
2023-03-06T08:33:28.698Z,1710.00
2023-03-06T08:34:28.679Z,1729.00
2023-03-06T08:35:28.646Z,1807.00
2023-03-06T08:36:28.578Z,1831.00
2023-03-06T08:37:28.613Z,1828.00
2023-03-06T08:38:28.546Z,1787.00
2023-03-06T08:39:28.623Z,1779.00
2023-03-06T08:40:28.483Z,1795.00
2023-03-06T08:41:28.466Z,1810.00
2023-03-06T08:42:28.485Z,1858.00
2023-03-06T08:43:28.381Z,1866.00
2023-03-06T08:44:28.330Z,1821.00
2023-03-06T08:45:28.297Z,1779.00
2023-03-06T08:46:28.798Z,1782.00
2023-03-06T08:47:28.216Z,1890.00
2023-03-06T08:48:28.205Z,1892.00
2023-03-06T08:49:28.209Z,1892.00
2023-03-06T08:50:28.119Z,1803.00
2023-03-06T08:51:28.157Z,1778.00
2023-03-06T08:52:28.092Z,1775.00
2023-03-06T08:53:42.122Z,1845.00
2023-03-06T08:54:29.054Z,1880.00
2023-03-06T08:55:28.008Z,1875.00
2023-03-06T08:56:27.955Z,1791.00
2023-03-06T08:57:27.924Z,1782.00
2023-03-06T08:58:27.864Z,1777.00
2023-03-06T08:59:27.874Z,1862.00
2023-03-06T09:00:27.882Z,1878.00
2023-03-06T09:01:27.842Z,1875.00
2023-03-06T09:02:27.883Z,1847.00
2023-03-06T09:03:27.745Z,1793.00
2023-03-06T09:04:27.716Z,1780.00
2023-03-06T09:05:27.640Z,1861.00
2023-03-06T09:06:27.604Z,1864.00
2023-03-06T09:07:27.557Z,1857.00
2023-03-06T09:08:27.531Z,1839.00
2023-03-06T09:09:27.622Z,1824.00
2023-03-06T09:10:27.501Z,1832.00
2023-03-06T09:11:27.452Z,1858.00
2023-03-06T09:12:29.278Z,1858.00
2023-03-06T09:13:27.377Z,1855.00
2023-03-06T09:14:27.473Z,1759.00
2023-03-06T09:15:27.278Z,1773.00
2023-03-06T09:16:27.296Z,1767.00
2023-03-06T09:17:27.329Z,1849.00
2023-03-06T09:18:27.202Z,1858.00
2023-03-06T09:19:27.151Z,1814.00
2023-03-06T09:20:27.142Z,1685.00
2023-03-06T09:21:27.162Z,1672.00
2023-03-06T09:22:27.073Z,1666.00
2023-03-06T09:23:27.049Z,1675.00
2023-03-06T09:24:27.372Z,1680.00
2023-03-06T09:25:26.922Z,1655.00
2023-03-06T09:26:39.581Z,1646.00
2023-03-06T09:27:27.936Z,1649.00
2023-03-06T09:28:27.911Z,1698.00
2023-03-06T09:29:27.294Z,1733.00
2023-03-06T09:30:26.756Z,1720.00
2023-03-06T09:31:26.729Z,1729.00
2023-03-06T09:32:26.712Z,1630.00
2023-03-06T09:33:26.660Z,1623.00
2023-03-06T09:34:26.621Z,1537.00
2023-03-06T09:35:26.612Z,1609.00
2023-03-06T09:36:26.562Z,1607.00
2023-03-06T09:37:26.619Z,1530.00
2023-03-06T09:38:26.510Z,1443.00
2023-03-06T09:39:26.487Z,1387.00
2023-03-06T09:40:26.403Z,1407.00
2023-03-06T09:41:26.407Z,1405.00
2023-03-06T10:06:25.606Z,1099.00
2023-03-06T10:07:25.572Z,1077.00
2023-03-06T10:08:25.626Z,1053.00
2023-03-06T10:09:25.606Z,1044.00
2023-03-06T10:10:25.525Z,1044.00
2023-03-06T10:11:25.485Z,1045.00
2023-03-06T10:12:25.451Z,1034.00
2023-03-06T10:13:25.424Z,1020.00
2023-03-06T10:14:25.447Z,1001.00
2023-03-06T10:15:25.444Z,1000.00
2023-03-06T10:16:25.363Z,1006.00
2023-03-06T10:17:25.353Z,1005.00
2023-03-06T10:18:25.301Z,993.00
2023-03-06T10:19:25.254Z,967.00
2023-03-06T10:20:25.226Z,952.00
2023-03-06T10:21:25.264Z,951.00
2023-03-06T10:22:25.237Z,957.00
2023-03-06T10:23:25.170Z,950.00
2023-03-06T10:24:25.133Z,940.00
2023-03-06T10:25:25.138Z,912.00
2023-03-06T10:26:25.131Z,915.00
2023-03-06T10:27:25.068Z,921.00
2023-03-06T10:28:25.036Z,916.00
2023-03-06T10:29:25.016Z,906.00
2023-03-06T10:30:24.968Z,897.00
2023-03-06T10:31:25.014Z,893.00
2023-03-06T10:32:24.940Z,893.00
2023-03-06T10:33:24.877Z,894.00
2023-03-06T10:34:24.860Z,887.00
2023-03-06T10:35:24.893Z,877.00
2023-03-06T10:36:24.840Z,860.00
2023-03-06T10:37:24.784Z,864.00
2023-03-06T10:38:24.751Z,894.00
2023-03-06T10:39:24.712Z,921.00
2023-03-06T10:40:24.719Z,959.00
2023-03-06T10:41:24.770Z,967.00
2023-03-06T10:42:24.634Z,966.00
2023-03-06T10:43:24.660Z,1046.00
2023-03-06T10:44:24.590Z,1115.00
2023-03-06T10:45:24.533Z,1120.00
2023-03-06T10:46:24.564Z,1121.00
2023-03-06T10:47:24.484Z,1134.00
2023-03-06T10:48:24.521Z,1156.00
2023-03-06T10:49:24.395Z,1180.00
2023-03-06T10:50:24.532Z,1187.00
2023-03-06T10:51:24.350Z,1187.00
2023-03-06T10:52:24.295Z,1184.00
2023-03-06T10:53:24.266Z,1182.00
2023-03-06T10:54:24.247Z,1194.00
2023-03-06T10:55:24.157Z,1202.00
2023-03-06T10:56:24.134Z,1210.00
2023-03-06T10:57:24.097Z,1208.00
2023-03-06T10:58:24.020Z,1231.00
2023-03-06T10:59:23.986Z,1251.00
2023-03-06T11:00:23.930Z,1281.00
2023-03-06T11:01:23.927Z,1289.00
2023-03-06T11:02:23.878Z,1287.00
2023-03-06T11:03:23.799Z,1291.00
2023-03-06T11:04:23.830Z,1299.00
2023-03-06T11:05:23.737Z,1310.00
2023-03-06T11:06:23.708Z,1328.00
2023-03-06T11:07:23.600Z,1327.00
2023-03-06T11:08:23.564Z,1322.00
2023-03-06T11:09:23.503Z,1322.00
2023-03-06T11:10:23.644Z,1270.00
2023-03-06T11:11:36.690Z,1261.00
2023-03-06T11:12:24.362Z,1254.00
2023-03-06T11:13:23.882Z,1248.00
2023-03-06T11:14:23.293Z,1240.00
2023-03-06T11:15:23.208Z,1128.00
2023-03-06T11:16:25.803Z,1122.00
2023-03-06T11:17:23.191Z,1136.00
2023-03-06T11:18:23.116Z,1156.00
2023-03-06T11:19:23.009Z,1154.00
2023-03-06T11:20:22.992Z,1155.00
2023-03-06T11:21:22.919Z,1155.00
2023-03-06T11:22:22.871Z,1150.00
2023-03-06T11:23:22.816Z,1146.00
2023-03-06T11:24:22.735Z,1147.00
2023-03-06T11:25:22.670Z,1141.00
2023-03-06T11:26:22.648Z,1144.00
2023-03-06T11:27:22.550Z,1134.00
2023-03-06T11:28:22.510Z,1120.00
2023-03-06T11:29:22.480Z,1112.00
2023-03-06T11:30:22.381Z,1110.00
2023-03-06T11:31:22.407Z,1113.00
2023-03-06T11:32:22.290Z,1126.00
2023-03-06T11:33:22.319Z,1137.00
2023-03-06T11:34:22.186Z,1138.00
2023-03-06T11:35:22.098Z,1132.00
2023-03-06T11:36:22.066Z,1146.00
2023-03-06T11:37:22.003Z,1140.00
2023-03-06T11:38:21.945Z,1131.00
2023-03-06T11:39:21.865Z,1155.00
2023-03-06T11:40:21.825Z,1141.00
2023-03-06T11:41:21.881Z,1137.00
2023-03-06T11:42:21.676Z,1122.00
2023-03-06T11:43:21.609Z,1112.00
2023-03-06T11:44:21.575Z,1102.00
2023-03-06T11:45:21.522Z,1088.00
2023-03-06T11:46:21.531Z,1084.00
2023-03-06T11:47:21.441Z,1073.00
2023-03-06T11:48:21.343Z,1058.00
2023-03-06T11:49:21.283Z,1046.00
2023-03-06T11:50:21.214Z,1028.00
2023-03-06T11:51:21.172Z,1019.00
2023-03-06T11:52:21.117Z,1014.00
2023-03-06T11:53:21.084Z,998.00
2023-03-06T11:54:21.015Z,995.00
2023-03-06T11:55:20.972Z,992.00
2023-03-06T11:56:20.914Z,988.00
2023-03-06T11:57:20.869Z,969.00
2023-03-06T11:58:20.780Z,966.00
2023-03-06T11:59:20.749Z,965.00
2023-03-06T12:00:20.672Z,960.00
2023-03-06T12:01:21.361Z,951.00
2023-03-06T12:02:20.578Z,951.00
2023-03-06T12:03:20.619Z,948.00
2023-03-06T12:04:20.450Z,936.00
2023-03-06T12:05:20.518Z,923.00
2023-03-06T12:06:20.624Z,919.00
2023-03-06T12:07:20.403Z,912.00
2023-03-06T12:08:20.248Z,907.00
2023-03-06T12:09:20.272Z,903.00
2023-03-06T12:10:20.183Z,901.00
2023-03-06T12:11:20.677Z,899.00
2023-03-06T12:12:20.052Z,895.00
2023-03-06T12:13:20.010Z,894.00
2023-03-06T12:14:19.924Z,894.00
2023-03-06T16:01:11.039Z,926.00
2023-03-06T16:15:10.621Z,873.00
2023-03-06T16:16:10.591Z,869.00
2023-03-06T16:17:10.561Z,868.00
2023-03-06T16:18:10.526Z,868.00
2023-03-06T16:19:14.000Z,867.00
2023-03-06T16:21:10.462Z,857.00
2023-03-06T16:22:10.439Z,860.00
2023-03-06T16:23:10.445Z,863.00
2023-03-06T16:24:10.365Z,860.00
2023-03-06T16:32:10.208Z,833.00
2023-03-06T16:33:10.142Z,833.00
2023-03-06T16:34:11.119Z,833.00
2023-03-06T16:35:10.112Z,826.00
2023-03-06T16:36:10.112Z,819.00
2023-03-06T16:37:10.071Z,815.00
2023-03-06T16:38:10.051Z,813.00
2023-03-06T16:39:10.020Z,816.00
2023-03-06T16:40:10.008Z,814.00
2023-03-06T16:41:11.123Z,808.00
2023-03-06T16:42:09.986Z,805.00
2023-03-06T16:43:09.961Z,803.00
2023-03-06T16:44:09.973Z,805.00
2023-03-06T16:45:09.924Z,805.00
2023-03-06T22:49:01.241Z,501.00
2023-03-06T22:57:01.063Z,502.00
2023-03-06T22:58:01.093Z,502.00
2023-03-06T22:59:01.044Z,500.00
2023-03-06T23:00:01.023Z,501.00
2023-03-06T23:01:01.032Z,500.00
2023-03-06T23:02:00.974Z,499.00
2023-03-06T23:03:00.963Z,497.00
2023-03-06T23:04:00.973Z,496.00
2023-03-06T23:05:00.946Z,496.00
2023-03-06T23:06:00.896Z,494.00
2023-03-06T23:07:00.879Z,495.00
2023-03-06T23:08:00.865Z,493.00
2023-03-06T23:09:00.868Z,495.00
2023-03-06T23:10:00.803Z,493.00
2023-03-06T23:11:00.796Z,491.00
2023-03-06T23:12:00.755Z,493.00
2023-03-06T23:13:00.749Z,499.00
2023-03-06T23:14:00.738Z,498.00
2023-03-06T23:15:00.771Z,500.00
2023-03-06T23:16:00.705Z,498.00
2023-03-06T23:17:00.641Z,497.00
2023-03-06T23:18:00.626Z,495.00
2023-03-06T23:19:00.604Z,494.00
2023-03-06T23:20:00.582Z,493.00
2023-03-06T23:21:00.557Z,493.00
2023-03-06T23:22:00.560Z,491.00
2023-03-06T23:23:00.529Z,490.00
2023-03-06T23:24:00.502Z,493.00
2023-03-06T23:25:00.500Z,491.00
2023-03-06T23:26:00.457Z,489.00
2023-03-06T23:27:00.438Z,490.00
2023-03-06T23:28:00.432Z,490.00
2023-03-06T23:29:00.403Z,493.00
2023-03-06T23:30:00.386Z,493.00
2023-03-06T23:31:00.407Z,493.00
2023-03-06T23:32:00.366Z,492.00
2023-03-06T23:33:00.335Z,492.00
2023-03-06T23:34:00.298Z,493.00
2023-03-06T23:35:00.284Z,494.00
2023-03-06T23:36:00.389Z,493.00
2023-03-06T23:37:00.241Z,493.00
2023-03-06T23:38:00.224Z,493.00
2023-03-06T23:39:00.204Z,492.00
2023-03-06T23:40:00.210Z,492.00
2023-03-06T23:41:00.170Z,490.00
2023-03-06T23:42:00.147Z,489.00
2023-03-06T23:43:00.134Z,489.00
2023-03-06T23:44:00.118Z,491.00
2023-03-06T23:45:00.110Z,491.00
2023-03-06T23:46:00.101Z,493.00
2023-03-06T23:47:00.063Z,495.00
2023-03-06T23:48:00.083Z,496.00
2023-03-06T23:49:00.024Z,496.00
2023-03-06T23:49:59.983Z,494.00
2023-03-06T23:50:59.956Z,496.00
2023-03-06T23:51:59.947Z,497.00
2023-03-06T23:52:59.939Z,497.00
2023-03-06T23:53:59.932Z,495.00
